Shoshone, California Weather observations

Data are for observation ending at time listed.
 Day   Time    Ave.   Ave.  Ave.  Vector   Max.   Stn.    Total    Solar   Ave.  
  of    of     Air    Rel.  Wind   Wind    Wind   Baro.  Precip.   Rad.    Soil  
Year   Day     Temp.  Hum.  Speed  Dir.    Gust   Pres.                    Temp. 
2015   (PST)    F      %     mph   deg.    mph     mb.     in.     W/m2     F   
------------------------------------------------------------------------------
 107   17:00   84.2     7    3.1   250     12.1    966     0.00     361    34.7
 107   18:00   82.5     8    3.1   174      9.1    965     0.00     135    21.3
 107   19:00   77.1    10    1.4   160      7.5    965     0.00       5    16.7
 107   20:00   72.3    12    0.9   167      4.9    966     0.00       0    15.9
 107   21:00   69.3    13    0.8   226      3.4    966     0.00       0    18.2
 107   22:00   63.2    15    1.5     5      4.2    966     0.00       0    23.3
 107   23:00   57.8    20    1.4     0      5.2    966     0.00       1    31.6
 108    0:00   54.6    24    1.0    11      4.8    967     0.00       1    41.8
 108    1:00   52.7    23    0.3     5      2.0    967     0.00       2    55.0
 108    2:00   51.0    24    0.4    29      3.1    967     0.00       1    72.6
 108    3:00   48.2    28    1.1   352      4.3    967     0.00       1    88.4
 108    4:00   46.5    30    0.5   360      3.7    967     0.00       1    103.4
 108    5:00   45.2    33    0.5     4      2.0    968     0.00       1    117.6
 108    6:00   45.5    31    0.6    35      2.6    968     0.00      46    99999.0
 108    7:00   52.2    26    1.0   340      2.9    969     0.00     248    99999.0
 108    8:00   62.7    16    1.1   251      3.7    969     0.00     475    99999.0
 108    9:00   70.9    12    0.7   184      3.8    969     0.00     682    99999.0
 108   10:00   77.6    10    1.4   288      7.2    968     0.00     852    114.1
 108   11:00   80.5     9    2.9   253      8.9    968     0.00     972    87.5
 108   12:00   84.2     8    3.5   271     11.5    966     0.00    1023    82.0
 108   13:00   87.1     7    3.7   276     12.1    966     0.00    1006    86.7
 108   14:00   88.7     7    4.2   186     13.9    965     0.00     921    74.9
 108   15:00   89.7     7    4.1   204     12.1    963     0.00     777    54.6
 108   16:00   90.1     7    5.0   207     11.9    963     0.00     583    35.1

Return to Shoshone, California graphs page.


Western Regional Climate Center,wrcc@dri.edu